createdAt,value
2022-12-27T11:21:25.810Z,78.20
2022-12-27T11:26:24.643Z,77.70
2022-12-27T11:31:21.238Z,76.60
2022-12-27T11:36:25.116Z,74.70
2022-12-27T11:41:27.682Z,75.00
2022-12-27T11:46:29.284Z,71.00
2022-12-27T11:51:47.974Z,68.40
2022-12-27T11:56:44.630Z,63.70
2022-12-27T12:02:08.558Z,62.70
2022-12-27T12:07:17.830Z,60.60
2022-12-27T12:12:32.918Z,59.50
2022-12-27T12:17:58.538Z,59.60
2022-12-27T12:23:08.239Z,58.00
2022-12-27T12:28:58.190Z,57.20
2022-12-27T12:34:04.417Z,57.80
2022-12-27T12:39:08.825Z,57.30
2022-12-27T12:44:30.138Z,54.60
2022-12-27T12:49:42.401Z,56.20
2022-12-27T12:54:55.071Z,53.40
2022-12-27T13:00:04.992Z,52.60
2022-12-27T13:05:11.575Z,52.70
2022-12-27T13:10:37.538Z,53.40
2022-12-27T13:15:48.326Z,54.60
2022-12-27T13:21:18.803Z,55.10
2022-12-27T13:26:21.171Z,57.20
2022-12-27T13:31:31.425Z,59.30
2022-12-27T13:36:31.119Z,57.10
2022-12-27T13:41:39.698Z,59.30
2022-12-27T13:47:18.238Z,60.60
2022-12-27T13:52:34.626Z,59.90
2022-12-27T13:57:51.337Z,62.60
2022-12-27T14:03:24.646Z,65.50
2022-12-27T14:08:34.360Z,67.90
2022-12-27T14:13:33.607Z,68.40
2022-12-27T14:18:55.567Z,71.20
2022-12-27T14:24:13.204Z,72.30
2022-12-27T14:29:48.520Z,71.30
2022-12-27T14:35:19.582Z,66.90
2022-12-27T14:40:51.810Z,70.00
2022-12-27T14:46:13.528Z,69.80
2022-12-27T14:52:00.165Z,72.50
2022-12-27T14:57:06.197Z,75.00
2022-12-27T15:02:20.080Z,79.30
2022-12-27T15:07:35.407Z,82.30
2022-12-27T15:12:40.195Z,84.30
2022-12-27T15:17:53.125Z,87.20
2022-12-27T15:22:58.151Z,90.00
2022-12-27T15:28:03.079Z,91.90
2022-12-27T15:33:05.383Z,92.20
2022-12-27T15:38:09.320Z,93.10
2022-12-27T15:43:21.806Z,94.40
2022-12-27T15:48:53.244Z,95.40
